createdAt,value
2022-12-04T00:01:53.515Z,9.13
2022-12-04T00:03:58.658Z,9.80
2022-12-04T00:06:04.841Z,9.55
2022-12-04T00:08:06.991Z,9.00
2022-12-04T00:10:09.962Z,10.57
2022-12-04T00:12:11.858Z,9.57
2022-12-04T00:14:13.778Z,9.55
2022-12-04T00:16:18.852Z,10.63
2022-12-04T00:18:20.917Z,9.90
2022-12-04T00:20:23.460Z,9.90
2022-12-04T00:22:25.374Z,10.40
2022-12-04T00:24:27.240Z,10.20
2022-12-04T00:26:31.526Z,10.90
2022-12-04T00:28:34.640Z,11.50
2022-12-04T00:30:42.111Z,11.02
2022-12-04T00:32:44.020Z,10.38
2022-12-04T00:34:46.256Z,11.43
2022-12-04T00:36:48.169Z,11.70
2022-12-04T00:38:50.488Z,11.10
2022-12-04T00:40:53.307Z,10.82
2022-12-04T00:42:55.353Z,11.60
2022-12-04T00:44:57.661Z,10.55
2022-12-04T00:46:59.688Z,11.32
2022-12-04T00:49:02.821Z,9.70
2022-12-04T00:51:08.270Z,9.85
2022-12-04T00:53:10.268Z,10.02
2022-12-04T00:55:12.210Z,10.63
2022-12-04T00:57:14.170Z,10.57
2022-12-04T00:59:16.134Z,11.07
2022-12-04T01:01:20.153Z,10.38
2022-12-04T01:03:22.287Z,10.43
2022-12-04T01:05:24.264Z,10.82
2022-12-04T01:07:26.768Z,10.05
2022-12-04T01:09:28.759Z,10.90
2022-12-04T01:11:31.147Z,10.70
2022-12-04T01:13:33.152Z,10.45
2022-12-04T01:15:39.796Z,9.48
2022-12-04T01:17:41.792Z,10.40
2022-12-04T01:19:43.780Z,9.48
2022-12-04T01:21:45.794Z,8.70
2022-12-04T01:23:48.029Z,9.38
2022-12-04T01:25:52.420Z,8.95
2022-12-04T01:27:54.463Z,9.90
2022-12-04T01:29:56.692Z,8.43
2022-12-04T01:31:59.022Z,10.13
2022-12-04T01:34:01.113Z,9.85
2022-12-04T01:36:05.338Z,9.05
2022-12-04T01:38:07.285Z,8.45
2022-12-04T01:40:13.991Z,8.38
2022-12-04T01:42:16.324Z,8.77
2022-12-04T01:44:19.056Z,8.57
2022-12-04T01:46:21.175Z,9.15
2022-12-04T01:48:26.736Z,9.82
2022-12-04T01:50:29.796Z,8.82
2022-12-04T01:52:31.757Z,8.77
2022-12-04T01:54:37.703Z,9.93
2022-12-04T01:56:45.182Z,10.02
2022-12-04T01:58:51.331Z,9.63
2022-12-04T02:00:58.525Z,9.35
2022-12-04T02:03:01.649Z,9.25
2022-12-04T02:05:07.105Z,9.77
2022-12-04T02:07:09.673Z,9.25
2022-12-04T02:09:12.086Z,9.50
2022-12-04T02:11:15.767Z,9.82
2022-12-04T02:13:25.516Z,10.50
2022-12-04T02:15:40.115Z,9.95
2022-12-04T02:17:51.876Z,9.82
2022-12-04T02:19:58.110Z,10.43
2022-12-04T02:22:10.297Z,10.65
2022-12-04T02:26:24.104Z,10.38
2022-12-04T02:28:34.837Z,10.95
2022-12-04T02:30:41.451Z,10.07
2022-12-04T02:32:51.721Z,10.50
2022-12-04T02:34:59.911Z,11.18
2022-12-04T02:37:09.027Z,11.68
2022-12-04T02:39:19.600Z,12.73
2022-12-04T02:41:23.262Z,11.20
2022-12-04T02:43:31.649Z,11.02
2022-12-04T02:45:40.574Z,11.10
2022-12-04T02:47:44.821Z,11.27
2022-12-04T02:49:52.623Z,11.10
2022-12-04T02:51:57.515Z,12.23
2022-12-04T02:54:08.130Z,11.07
2022-12-04T02:56:14.917Z,11.75
2022-12-04T02:58:25.861Z,11.02
2022-12-04T03:00:30.476Z,10.82
2022-12-04T03:02:39.171Z,10.48
2022-12-04T03:04:42.779Z,11.90
2022-12-04T03:06:49.280Z,10.98
2022-12-04T03:08:59.182Z,12.48
2022-12-04T03:11:02.050Z,12.27
2022-12-04T03:13:09.761Z,11.30
2022-12-04T03:15:23.380Z,12.20
2022-12-04T03:17:33.868Z,13.27
2022-12-04T03:19:41.951Z,12.90
2022-12-04T03:21:51.258Z,13.27
2022-12-04T03:24:00.196Z,13.88
2022-12-04T03:26:10.641Z,11.82
2022-12-04T03:28:22.957Z,12.70
2022-12-04T03:30:25.109Z,12.20
2022-12-04T03:32:34.070Z,12.93
2022-12-04T03:34:45.295Z,12.63
2022-12-04T03:36:53.863Z,13.20
2022-12-04T03:39:01.551Z,13.90
2022-12-04T03:41:05.446Z,13.23
2022-12-04T03:43:13.602Z,12.77
2022-12-04T03:45:22.391Z,12.75
2022-12-04T03:47:30.577Z,13.77
2022-12-04T03:49:44.064Z,12.48
2022-12-04T03:51:52.473Z,13.30
2022-12-04T03:54:02.631Z,13.25
2022-12-04T03:56:11.313Z,12.52
2022-12-04T03:58:20.575Z,12.73
2022-12-04T04:00:23.205Z,14.07
2022-12-04T04:02:28.433Z,13.85
2022-12-04T04:04:35.287Z,14.65
2022-12-04T04:06:42.584Z,14.02
2022-12-04T04:08:49.186Z,14.32
2022-12-04T04:10:55.465Z,14.40
2022-12-04T04:13:05.661Z,14.98
2022-12-04T04:15:16.384Z,14.35
2022-12-04T04:17:26.814Z,14.50
2022-12-04T04:19:36.700Z,14.70
2022-12-04T04:21:45.852Z,13.65
2022-12-04T04:23:54.486Z,15.45
2022-12-04T04:26:00.871Z,14.80
2022-12-04T04:28:02.790Z,14.88
2022-12-04T04:30:06.934Z,15.27
2022-12-04T04:32:09.690Z,15.70
2022-12-04T04:34:17.773Z,16.08
2022-12-04T04:36:33.416Z,14.82
2022-12-04T04:38:41.904Z,15.77
2022-12-04T04:40:50.883Z,15.40
2022-12-04T04:43:03.769Z,14.98
2022-12-04T04:45:14.016Z,14.52
2022-12-04T04:47:24.243Z,14.98
2022-12-04T04:49:31.241Z,15.57
2022-12-04T04:51:35.387Z,14.30
2022-12-04T04:53:43.484Z,15.15
2022-12-04T04:55:46.268Z,16.33
2022-12-04T04:57:48.558Z,15.55
2022-12-04T04:59:50.482Z,14.68
2022-12-04T05:01:52.684Z,15.93
2022-12-04T05:03:54.673Z,15.48
2022-12-04T05:05:56.645Z,16.67
2022-12-04T05:07:58.609Z,16.80
2022-12-04T05:10:00.534Z,16.15
2022-12-04T05:12:02.435Z,15.65
2022-12-04T05:14:06.072Z,16.05
2022-12-04T05:16:12.522Z,17.08
2022-12-04T05:18:14.440Z,16.73
2022-12-04T05:20:16.489Z,16.08
2022-12-04T05:22:19.519Z,16.75
2022-12-04T05:24:21.478Z,16.45
2022-12-04T05:26:23.500Z,17.58
2022-12-04T05:28:25.430Z,16.58
2022-12-04T05:30:27.318Z,15.52
2022-12-04T05:32:30.004Z,16.08
2022-12-04T05:34:32.100Z,17.70
2022-12-04T05:36:34.070Z,15.63
2022-12-04T05:38:36.586Z,19.73
2022-12-04T05:40:38.512Z,16.35
2022-12-04T05:42:40.447Z,17.15
2022-12-04T05:44:42.345Z,15.73
2022-12-04T05:46:44.354Z,16.80
2022-12-04T05:48:46.490Z,17.25
2022-12-04T05:50:48.444Z,17.17
2022-12-04T05:52:50.373Z,16.13
2022-12-04T05:54:52.316Z,16.42
2022-12-04T05:56:54.243Z,16.33
2022-12-04T05:58:56.172Z,16.48
2022-12-04T06:00:58.189Z,16.98
2022-12-04T06:03:00.198Z,17.55
2022-12-04T06:05:02.171Z,16.45
2022-12-04T06:07:04.323Z,17.52
2022-12-04T06:09:08.387Z,18.05
2022-12-04T06:11:14.403Z,18.15
2022-12-04T06:13:16.280Z,17.88
2022-12-04T06:15:18.281Z,17.80
2022-12-04T06:17:20.313Z,18.63
2022-12-04T06:19:23.192Z,16.80
2022-12-04T06:21:27.831Z,16.95
2022-12-04T06:23:29.744Z,17.65
2022-12-04T06:25:31.650Z,17.20
2022-12-04T06:27:33.739Z,17.10
2022-12-04T06:29:35.727Z,18.88
2022-12-04T06:31:38.460Z,17.00
2022-12-04T06:33:40.965Z,16.10
2022-12-04T06:35:42.926Z,17.48
2022-12-04T06:37:44.879Z,17.50
2022-12-04T06:39:46.803Z,17.75
2022-12-04T06:41:48.791Z,18.33
2022-12-04T06:43:51.947Z,17.98
2022-12-04T06:46:00.259Z,17.63
2022-12-04T06:48:02.374Z,17.42
2022-12-04T06:50:05.007Z,18.50
2022-12-04T06:52:06.928Z,17.63
2022-12-04T06:54:09.907Z,16.42
2022-12-04T06:56:18.050Z,18.02
2022-12-04T06:58:20.017Z,18.00
2022-12-04T07:00:21.978Z,16.85
2022-12-04T07:02:24.029Z,17.95
2022-12-04T07:04:26.007Z,17.80
2022-12-04T07:06:32.129Z,19.08
2022-12-04T07:08:37.974Z,17.38
2022-12-04T07:10:40.486Z,18.05
2022-12-04T07:12:43.309Z,17.77
2022-12-04T07:14:45.572Z,18.98
2022-12-04T07:16:48.733Z,19.23
2022-12-04T07:18:57.086Z,18.38
2022-12-04T07:20:59.926Z,17.15
2022-12-04T07:23:07.062Z,18.00
2022-12-04T07:25:10.002Z,17.98
2022-12-04T07:27:12.052Z,18.17
2022-12-04T07:29:14.494Z,17.63
2022-12-04T07:31:19.609Z,18.77
2022-12-04T07:33:21.724Z,16.95
2022-12-04T07:35:23.658Z,18.77
2022-12-04T07:37:25.577Z,17.58
2022-12-04T07:39:28.496Z,19.17
2022-12-04T07:41:30.378Z,18.45
2022-12-04T07:43:33.536Z,19.42
2022-12-04T07:45:37.503Z,19.70
2022-12-04T07:47:39.467Z,17.42
2022-12-04T07:49:41.404Z,17.58
2022-12-04T07:51:43.341Z,17.42
2022-12-04T07:53:45.677Z,17.17
2022-12-04T07:55:53.314Z,17.95
2022-12-04T07:57:55.310Z,18.33
2022-12-04T07:59:57.490Z,18.75
2022-12-04T08:01:59.768Z,17.25
2022-12-04T08:04:03.237Z,19.17
2022-12-04T08:06:06.676Z,18.27
2022-12-04T08:08:08.753Z,18.15
2022-12-04T08:10:11.076Z,19.40
2022-12-04T08:12:12.953Z,19.40
2022-12-04T08:14:15.051Z,18.40
2022-12-04T08:16:17.261Z,18.25
2022-12-04T08:18:19.649Z,18.60
2022-12-04T08:20:21.748Z,17.23
2022-12-04T08:22:25.456Z,19.95
2022-12-04T08:24:27.584Z,17.75
2022-12-04T08:26:31.032Z,17.80
2022-12-04T08:28:33.592Z,17.38
2022-12-04T08:30:36.015Z,18.90
2022-12-04T08:32:38.014Z,16.67
2022-12-04T08:34:40.069Z,17.90
2022-12-04T08:36:42.168Z,18.35
2022-12-04T08:38:44.213Z,16.85
2022-12-04T08:40:46.131Z,16.92
2022-12-04T08:42:48.077Z,17.20
2022-12-04T08:44:50.105Z,18.48
2022-12-04T08:46:52.097Z,18.55
2022-12-04T08:48:54.839Z,17.58
2022-12-04T08:50:57.074Z,17.90
2022-12-04T08:52:59.172Z,16.90
2022-12-04T08:55:01.100Z,16.40
2022-12-04T08:57:03.591Z,18.27
2022-12-04T08:59:05.589Z,17.65
2022-12-04T09:01:09.598Z,17.20
2022-12-04T09:03:14.965Z,16.02
2022-12-04T09:05:17.799Z,18.23
2022-12-04T09:07:19.686Z,17.45
2022-12-04T09:09:21.616Z,17.77
2022-12-04T09:11:26.610Z,18.20
2022-12-04T09:13:28.557Z,16.45
2022-12-04T09:15:30.657Z,17.33
2022-12-04T09:17:32.701Z,16.63
2022-12-04T09:19:35.589Z,17.67
2022-12-04T09:21:37.820Z,17.33
2022-12-04T09:23:40.279Z,16.05
2022-12-04T09:25:42.165Z,16.42
2022-12-04T09:27:45.105Z,16.38
2022-12-04T09:29:47.000Z,16.33
2022-12-04T09:31:48.945Z,17.90
2022-12-04T09:33:51.428Z,17.42
2022-12-04T09:35:53.308Z,15.43
2022-12-04T09:37:55.391Z,16.08
2022-12-04T09:39:57.395Z,14.00
2022-12-04T09:42:21.782Z,14.82
2022-12-04T09:44:36.793Z,14.52
2022-12-04T09:46:46.630Z,15.13
2022-12-04T09:48:51.359Z,13.95
2022-12-04T09:50:54.736Z,15.13
2022-12-04T09:53:02.206Z,13.55
2022-12-04T09:55:05.805Z,14.25
2022-12-04T09:57:22.269Z,14.05
2022-12-04T09:59:27.710Z,13.48
2022-12-04T10:01:37.124Z,15.13
2022-12-04T10:03:40.583Z,13.50
2022-12-04T10:05:43.027Z,13.70
2022-12-04T10:08:03.470Z,14.38
2022-12-04T10:10:13.540Z,14.50
2022-12-04T10:12:32.352Z,14.18
2022-12-04T10:14:44.540Z,15.05
2022-12-04T10:16:59.527Z,15.10
2022-12-04T10:19:16.951Z,14.77
2022-12-04T10:21:33.751Z,14.88
2022-12-04T10:23:45.440Z,14.93
2022-12-04T10:25:50.660Z,20.05
2022-12-04T10:27:54.169Z,22.33
2022-12-04T10:30:00.759Z,50.25
2022-12-04T10:32:16.594Z,20.15
2022-12-04T10:34:25.704Z,14.57
2022-12-04T10:36:32.985Z,18.25
2022-12-04T10:38:44.254Z,16.85
2022-12-04T10:40:51.352Z,14.48
2022-12-04T10:43:01.056Z,15.40
2022-12-04T10:45:04.146Z,14.43
2022-12-04T10:47:07.229Z,14.20
2022-12-04T10:49:19.930Z,14.80
2022-12-04T10:51:23.227Z,15.07
2022-12-04T10:53:31.370Z,13.63
2022-12-04T10:55:36.739Z,14.93
2022-12-04T10:57:41.875Z,14.38
2022-12-04T10:59:55.706Z,14.70
2022-12-04T11:02:12.800Z,14.50
2022-12-04T11:04:24.934Z,14.77
2022-12-04T11:06:28.166Z,14.93
2022-12-04T11:08:42.205Z,14.38
2022-12-04T11:10:44.893Z,14.60
2022-12-04T11:12:57.650Z,15.13
2022-12-04T11:15:02.049Z,13.23
2022-12-04T11:17:07.147Z,13.18
2022-12-04T11:19:28.741Z,12.88
2022-12-04T11:21:32.424Z,13.50
2022-12-04T11:23:43.344Z,13.98
2022-12-04T11:25:48.105Z,13.73
2022-12-04T11:27:53.371Z,12.55
2022-12-04T11:29:56.866Z,12.55
2022-12-04T11:32:05.722Z,14.55
2022-12-04T11:34:18.626Z,12.82
2022-12-04T11:36:29.904Z,13.93
2022-12-04T11:38:35.316Z,14.38
2022-12-04T11:40:37.865Z,13.63
2022-12-04T11:42:39.715Z,13.45
2022-12-04T11:44:51.205Z,14.13
2022-12-04T11:46:56.334Z,13.48
2022-12-04T11:48:59.369Z,13.38
2022-12-04T11:51:09.860Z,13.73
2022-12-04T11:53:14.392Z,13.60
2022-12-04T11:55:30.269Z,12.85
2022-12-04T11:57:44.270Z,14.07
2022-12-04T11:59:54.662Z,13.30
2022-12-04T12:02:16.613Z,13.27
2022-12-04T12:04:20.206Z,12.50
2022-12-04T12:06:34.465Z,12.98
2022-12-04T12:08:46.609Z,14.35
2022-12-04T12:10:59.628Z,13.18
2022-12-04T12:13:11.545Z,13.15
2022-12-04T12:15:16.927Z,13.30
2022-12-04T12:17:24.105Z,13.07
2022-12-04T12:19:29.504Z,12.60
2022-12-04T12:21:50.234Z,13.90
2022-12-04T12:23:56.265Z,14.50
2022-12-04T12:26:09.327Z,13.20
2022-12-04T12:28:21.106Z,13.35
2022-12-04T12:30:25.308Z,13.20
2022-12-04T12:32:37.925Z,13.65
2022-12-04T12:34:43.337Z,13.52
2022-12-04T12:36:49.997Z,12.43
2022-12-04T12:38:59.088Z,11.52
2022-12-04T12:41:11.038Z,12.00
2022-12-04T12:43:32.725Z,12.93
2022-12-04T12:45:43.154Z,12.95
2022-12-04T12:47:49.879Z,12.98
2022-12-04T12:49:58.390Z,12.73
2022-12-04T12:52:17.537Z,12.82
2022-12-04T12:54:21.965Z,13.13
2022-12-04T12:56:35.671Z,12.23
2022-12-04T12:58:43.465Z,13.07
2022-12-04T13:01:00.510Z,12.02
2022-12-04T13:03:21.384Z,13.52
2022-12-04T13:05:36.052Z,12.73
2022-12-04T13:07:45.991Z,12.05
2022-12-04T13:10:01.085Z,13.37
2022-12-04T13:12:10.385Z,12.45
2022-12-04T13:14:14.570Z,12.05
2022-12-04T13:16:31.407Z,13.38
2022-12-04T13:18:46.490Z,12.43
2022-12-04T13:20:54.604Z,13.23
2022-12-04T13:23:15.905Z,13.75
2022-12-04T13:25:28.274Z,13.48
2022-12-04T13:27:30.837Z,11.88
2022-12-04T13:29:49.714Z,11.63
2022-12-04T13:32:01.877Z,12.57
2022-12-04T13:34:15.425Z,12.52
2022-12-04T13:36:46.711Z,12.70
2022-12-04T13:38:58.650Z,12.02
2022-12-04T13:41:04.605Z,12.95
2022-12-04T13:43:16.690Z,12.00
2022-12-04T13:45:28.731Z,11.90
2022-12-04T13:47:34.561Z,10.57
2022-12-04T13:49:38.391Z,12.30
2022-12-04T13:51:42.448Z,11.70
2022-12-04T13:53:44.744Z,12.95
2022-12-04T13:55:57.139Z,12.00
2022-12-04T13:58:02.910Z,11.35
2022-12-04T14:00:24.609Z,11.10
2022-12-04T14:02:29.214Z,11.02
2022-12-04T14:04:44.464Z,12.75
2022-12-04T14:06:51.570Z,14.82
2022-12-04T14:08:58.805Z,11.80
2022-12-04T14:11:06.108Z,14.20
2022-12-04T14:13:20.072Z,12.82
2022-12-04T14:15:27.305Z,12.30
2022-12-04T14:17:31.426Z,11.68
2022-12-04T14:19:35.973Z,12.68
2022-12-04T14:21:47.848Z,14.55
2022-12-04T14:23:51.006Z,14.27
2022-12-04T14:25:57.325Z,16.08
2022-12-04T14:27:59.486Z,14.07
2022-12-04T14:30:03.041Z,11.10
2022-12-04T14:32:16.889Z,12.25
2022-12-04T14:34:27.271Z,12.27
2022-12-04T14:36:34.245Z,12.23
2022-12-04T14:38:36.616Z,11.88
2022-12-04T14:40:45.551Z,11.60
2022-12-04T14:42:49.549Z,11.15
2022-12-04T14:44:56.788Z,12.35
2022-12-04T14:47:20.285Z,11.18
2022-12-04T14:49:36.106Z,11.25
2022-12-04T14:51:48.165Z,11.50
2022-12-04T14:54:04.389Z,11.15
2022-12-04T14:56:25.565Z,12.90
2022-12-04T14:58:31.366Z,10.60
2022-12-04T15:00:35.165Z,11.75
2022-12-04T15:02:43.634Z,11.65
2022-12-04T15:04:47.642Z,10.20
2022-12-04T15:06:56.819Z,10.70
2022-12-04T15:09:14.350Z,10.77
2022-12-04T15:11:29.461Z,10.68
2022-12-04T15:13:34.443Z,10.95
2022-12-04T15:15:37.026Z,11.45
2022-12-04T15:17:39.142Z,11.20
2022-12-04T15:19:41.668Z,10.65
2022-12-04T15:21:44.192Z,9.85
2022-12-04T15:23:46.600Z,10.02
2022-12-04T15:25:53.620Z,10.55
2022-12-04T15:28:12.259Z,10.13
2022-12-04T15:30:18.888Z,9.68
2022-12-04T15:32:23.540Z,9.35
2022-12-04T15:34:39.286Z,10.20
2022-12-04T15:36:50.972Z,9.40
2022-12-04T15:38:54.220Z,9.30
2022-12-04T15:41:01.044Z,9.48
2022-12-04T15:43:16.935Z,9.15
2022-12-04T15:45:19.375Z,9.18
2022-12-04T15:47:24.786Z,8.32
2022-12-04T15:49:29.200Z,7.88
2022-12-04T15:51:35.364Z,7.90
2022-12-04T15:53:39.923Z,7.63
2022-12-04T15:55:54.205Z,6.70
2022-12-04T15:57:58.242Z,7.40
2022-12-04T16:00:05.551Z,7.28
2022-12-04T16:02:22.112Z,8.68
2022-12-04T16:04:28.824Z,8.65
2022-12-04T16:06:35.224Z,8.07
2022-12-04T16:08:40.561Z,8.38
2022-12-04T16:10:42.810Z,8.80
2022-12-04T16:12:54.027Z,7.57
2022-12-04T16:14:57.352Z,8.82
2022-12-04T16:17:06.226Z,8.27
2022-12-04T16:19:14.846Z,8.80
2022-12-04T16:21:19.443Z,8.30
2022-12-04T16:23:24.345Z,8.32
2022-12-04T16:25:26.465Z,8.45
2022-12-04T16:27:28.775Z,9.00
2022-12-04T16:29:31.822Z,8.05
2022-12-04T16:31:34.292Z,8.30
2022-12-04T16:33:36.687Z,8.20
2022-12-04T16:35:38.846Z,8.60
2022-12-04T16:37:41.181Z,8.52
2022-12-04T16:39:43.947Z,8.40
2022-12-04T16:41:46.185Z,9.40
2022-12-04T16:43:59.994Z,10.15
2022-12-04T16:46:02.461Z,9.48
2022-12-04T16:48:05.425Z,9.35
2022-12-04T16:50:10.221Z,9.85
2022-12-04T16:52:13.268Z,8.85
2022-12-04T16:54:15.955Z,9.77
2022-12-04T16:56:19.760Z,9.80
2022-12-04T16:58:22.139Z,9.63
2022-12-04T17:00:26.829Z,9.15
2022-12-04T17:02:29.196Z,9.30
2022-12-04T17:04:31.746Z,9.73
2022-12-04T17:06:34.104Z,9.32
2022-12-04T17:08:36.462Z,9.10
2022-12-04T17:10:38.666Z,8.50
2022-12-04T17:12:42.464Z,9.00
2022-12-04T17:14:44.706Z,8.90
2022-12-04T17:16:47.944Z,8.23
2022-12-04T17:18:50.786Z,8.60
2022-12-04T17:20:52.885Z,8.68
2022-12-04T17:22:55.105Z,8.88
2022-12-04T17:24:58.526Z,7.70
2022-12-04T17:27:01.518Z,7.55
2022-12-04T17:29:03.742Z,7.28
2022-12-04T17:31:14.220Z,7.80
2022-12-04T17:33:16.512Z,7.15
2022-12-04T17:35:18.893Z,7.55
2022-12-04T17:37:22.382Z,8.23
2022-12-04T17:39:24.827Z,8.25
2022-12-04T17:41:26.971Z,7.63
2022-12-04T17:43:30.301Z,7.93
2022-12-04T17:45:32.466Z,7.28
2022-12-04T17:47:36.170Z,7.53
2022-12-04T17:49:38.316Z,8.07
2022-12-04T17:51:40.400Z,8.05
2022-12-04T17:53:42.743Z,7.22
2022-12-04T17:55:45.026Z,7.28
2022-12-04T17:57:47.429Z,6.68
2022-12-04T17:59:50.709Z,7.38
2022-12-04T18:01:53.078Z,7.45
2022-12-04T18:03:59.181Z,7.22
2022-12-04T18:06:10.976Z,7.53
2022-12-04T18:08:13.307Z,8.07
2022-12-04T18:10:15.940Z,7.93
2022-12-04T18:12:18.072Z,7.97
2022-12-04T18:14:22.860Z,7.85
2022-12-04T18:16:25.752Z,7.32
2022-12-04T18:18:27.895Z,7.95
2022-12-04T18:20:30.334Z,8.05
2022-12-04T18:22:32.706Z,7.72
2022-12-04T18:24:35.511Z,8.10
2022-12-04T18:26:41.116Z,8.38
2022-12-04T18:28:43.805Z,8.60
2022-12-04T18:30:46.233Z,8.77
2022-12-04T18:32:48.651Z,8.80
2022-12-04T18:34:51.036Z,8.82
2022-12-04T18:36:53.090Z,9.25
2022-12-04T18:38:57.515Z,8.35
2022-12-04T18:41:04.393Z,8.23
2022-12-04T18:43:06.483Z,8.10
2022-12-04T18:45:09.585Z,8.57
2022-12-04T18:47:11.560Z,8.25
2022-12-04T18:49:14.036Z,8.57
2022-12-04T18:51:27.032Z,9.18
2022-12-04T18:53:29.226Z,9.95
2022-12-04T18:55:31.321Z,9.13
2022-12-04T18:57:33.377Z,9.23
2022-12-04T18:59:37.563Z,10.40
2022-12-04T19:01:40.640Z,10.15
2022-12-04T19:03:43.103Z,8.95
2022-12-04T19:05:51.105Z,10.30
2022-12-04T19:07:54.070Z,10.82
2022-12-04T19:10:11.953Z,9.52
2022-12-04T19:12:14.361Z,9.40
2022-12-04T19:14:23.654Z,9.52
2022-12-04T19:16:26.223Z,9.50
2022-12-04T19:18:30.203Z,10.52
2022-12-04T19:20:32.862Z,10.05
2022-12-04T19:22:35.949Z,8.93
2022-12-04T19:24:38.031Z,8.63
2022-12-04T19:26:41.025Z,10.63
2022-12-04T19:28:43.135Z,9.18
2022-12-04T19:30:45.464Z,9.30
2022-12-04T19:32:47.652Z,8.80
2022-12-04T19:34:50.369Z,8.45
2022-12-04T19:36:54.651Z,8.15
2022-12-04T19:38:58.325Z,8.80
2022-12-04T19:41:11.470Z,7.60
2022-12-04T19:43:13.500Z,7.32
2022-12-04T19:45:15.761Z,7.13
2022-12-04T19:47:19.122Z,7.05
2022-12-04T19:49:21.250Z,7.55
2022-12-04T19:51:23.411Z,7.97
2022-12-04T19:53:25.668Z,8.00
2022-12-04T19:55:27.986Z,8.10
2022-12-04T19:57:30.632Z,9.38
2022-12-04T19:59:37.001Z,8.30
2022-12-04T20:01:40.634Z,8.80
2022-12-04T20:03:42.803Z,7.80
2022-12-04T20:05:45.050Z,8.82
2022-12-04T20:07:47.178Z,7.18
2022-12-04T20:09:52.410Z,7.93
2022-12-04T20:11:54.964Z,8.25
2022-12-04T20:13:59.459Z,7.93
2022-12-04T20:16:03.123Z,7.85
2022-12-04T20:18:05.652Z,8.70
2022-12-04T20:20:09.396Z,8.60
2022-12-04T20:22:11.484Z,8.80
2022-12-04T20:24:16.229Z,8.57
2022-12-04T20:26:21.535Z,9.27
2022-12-04T20:28:23.872Z,8.73
2022-12-04T20:30:27.923Z,8.57
2022-12-04T20:32:30.152Z,8.18
2022-12-04T20:34:32.292Z,9.15
2022-12-04T20:36:40.426Z,9.70
2022-12-04T20:38:42.973Z,8.63
2022-12-04T20:40:45.719Z,8.95
2022-12-04T20:42:47.922Z,8.75
2022-12-04T20:44:50.168Z,9.15
2022-12-04T20:46:53.671Z,8.50
2022-12-04T20:48:55.793Z,9.88
2022-12-04T20:51:01.189Z,9.40
2022-12-04T20:53:03.452Z,8.77
2022-12-04T20:55:07.122Z,9.02
2022-12-04T20:57:10.012Z,9.63
2022-12-04T20:59:14.861Z,9.70
2022-12-04T21:01:19.319Z,9.43
2022-12-04T21:03:21.365Z,10.05
2022-12-04T21:05:23.603Z,9.65
2022-12-04T21:07:25.652Z,9.40
2022-12-04T21:09:27.942Z,9.38
2022-12-04T21:11:34.494Z,10.05
2022-12-04T21:13:47.611Z,9.48
2022-12-04T21:16:01.607Z,10.27
2022-12-04T21:18:04.060Z,10.85
2022-12-04T21:20:08.017Z,10.77
2022-12-04T21:22:10.620Z,9.27
2022-12-04T21:24:15.141Z,10.65
2022-12-04T21:26:17.213Z,10.23
2022-12-04T21:28:19.469Z,10.27
2022-12-04T21:30:21.523Z,10.75
2022-12-04T21:32:24.072Z,11.10
2022-12-04T21:34:26.261Z,11.25
2022-12-04T21:36:28.601Z,10.63
2022-12-04T21:38:35.751Z,11.57
2022-12-04T21:40:42.403Z,11.10
2022-12-04T21:42:45.280Z,11.45
2022-12-04T21:44:47.417Z,10.98
2022-12-04T21:46:50.620Z,10.88
2022-12-04T21:48:53.329Z,11.35
2022-12-04T21:50:55.800Z,10.82
2022-12-04T21:52:57.848Z,9.65
2022-12-04T21:55:00.039Z,11.35
2022-12-04T21:57:02.312Z,10.05
2022-12-04T21:59:07.264Z,14.13
2022-12-04T22:01:11.674Z,39.03
2022-12-04T22:03:14.758Z,16.55
2022-12-04T22:05:17.066Z,13.00
2022-12-04T22:07:19.307Z,13.55
2022-12-04T22:09:21.521Z,11.27
2022-12-04T22:11:23.582Z,12.25
2022-12-04T22:13:25.902Z,12.43
2022-12-04T22:15:27.919Z,10.68
2022-12-04T22:17:30.800Z,11.38
2022-12-04T22:19:34.323Z,11.90
2022-12-04T22:21:36.562Z,10.85
2022-12-04T22:23:38.801Z,11.88
2022-12-04T22:25:41.051Z,11.25
2022-12-04T22:27:43.033Z,11.15
2022-12-04T22:29:52.541Z,10.13
2022-12-04T22:31:54.732Z,11.55
2022-12-04T22:33:59.196Z,11.80
2022-12-04T22:36:11.780Z,12.32
2022-12-04T22:38:13.801Z,10.07
2022-12-04T22:40:17.199Z,10.80
2022-12-04T22:42:19.900Z,10.85
2022-12-04T22:44:22.163Z,10.45
2022-12-04T22:46:24.398Z,12.30
2022-12-04T22:48:30.031Z,12.02
2022-12-04T22:50:32.671Z,11.38
2022-12-04T22:52:34.841Z,11.98
2022-12-04T22:54:36.900Z,11.82
2022-12-04T22:56:39.044Z,12.10
2022-12-04T22:58:41.200Z,11.65
2022-12-04T23:00:43.260Z,10.68
2022-12-04T23:02:45.373Z,13.40
2022-12-04T23:04:47.635Z,12.90
2022-12-04T23:06:49.873Z,13.40
2022-12-04T23:08:57.101Z,11.68
2022-12-04T23:11:03.515Z,11.75
2022-12-04T23:13:05.832Z,12.77
2022-12-04T23:15:08.762Z,11.50
2022-12-04T23:17:10.866Z,12.52
2022-12-04T23:19:16.543Z,11.13
2022-12-04T23:21:20.240Z,12.40
2022-12-04T23:23:22.620Z,11.95
2022-12-04T23:25:24.890Z,12.88
2022-12-04T23:27:27.113Z,12.00
2022-12-04T23:29:52.057Z,12.50
2022-12-04T23:31:51.696Z,11.85
2022-12-04T23:33:53.976Z,11.80
2022-12-04T23:35:58.471Z,12.98
2022-12-04T23:38:00.487Z,11.57
2022-12-04T23:40:02.610Z,11.25
2022-12-04T23:42:05.189Z,11.98
2022-12-04T23:44:07.301Z,12.23
2022-12-04T23:46:11.970Z,11.55
2022-12-04T23:48:13.961Z,11.68
2022-12-04T23:50:16.052Z,12.95
2022-12-04T23:52:18.130Z,12.38
2022-12-04T23:54:20.071Z,12.43
2022-12-04T23:56:24.847Z,11.95
2022-12-04T23:58:27.430Z,13.25
